createdAt,value
2023-03-07T00:01:02.309Z,6.90
2023-03-07T00:03:34.363Z,6.90
2023-03-07T00:06:10.176Z,6.90
2023-03-07T00:08:48.995Z,6.80
2023-03-07T00:11:18.696Z,6.80
2023-03-07T00:13:48.874Z,6.90
2023-03-07T00:16:23.916Z,6.90
2023-03-07T00:19:05.264Z,6.90
2023-03-07T00:21:56.369Z,6.90
2023-03-07T00:24:26.947Z,6.90
2023-03-07T00:27:04.796Z,6.90
2023-03-07T00:29:53.733Z,6.80
2023-03-07T00:32:28.520Z,6.90
2023-03-07T00:35:02.093Z,6.90
2023-03-07T00:37:33.387Z,6.90
2023-03-07T00:40:03.942Z,6.90
2023-03-07T00:42:35.099Z,6.90
2023-03-07T00:45:08.307Z,6.90
2023-03-07T00:47:42.100Z,6.90
2023-03-07T00:50:16.822Z,7.00
2023-03-07T00:53:06.210Z,6.90
2023-03-07T00:55:38.542Z,7.00
2023-03-07T00:58:18.780Z,7.00
2023-03-07T01:00:48.936Z,7.00
2023-03-07T01:03:21.527Z,7.00
2023-03-07T01:05:57.481Z,6.90
2023-03-07T01:08:28.318Z,6.90
2023-03-07T01:11:01.847Z,7.00
2023-03-07T01:13:35.340Z,6.90
2023-03-07T01:16:16.893Z,6.90
2023-03-07T01:18:51.271Z,6.90
2023-03-07T01:21:23.906Z,6.90
2023-03-07T01:23:57.681Z,6.90
2023-03-07T01:26:36.804Z,6.90
2023-03-07T01:29:08.827Z,7.00
2023-03-07T01:31:40.067Z,6.90
2023-03-07T01:34:09.914Z,6.90
2023-03-07T01:36:45.238Z,6.90
2023-03-07T01:39:18.258Z,6.90
2023-03-07T01:41:49.805Z,6.90
2023-03-07T01:44:35.783Z,7.00
2023-03-07T01:47:08.078Z,6.90
2023-03-07T01:49:44.439Z,7.00
2023-03-07T01:52:32.031Z,7.00
2023-03-07T01:55:27.920Z,7.10
2023-03-07T01:58:24.294Z,7.00
2023-03-07T02:00:56.755Z,7.10
2023-03-07T02:03:34.975Z,7.10
2023-03-07T02:06:22.842Z,7.10
2023-03-07T02:08:55.603Z,7.10
2023-03-07T02:11:30.111Z,7.10
2023-03-07T02:14:06.462Z,7.10
2023-03-07T02:16:35.015Z,7.10
2023-03-07T02:22:07.898Z,7.10
2023-03-07T02:24:47.307Z,7.10
2023-03-07T02:27:52.099Z,7.00
2023-03-07T02:30:26.692Z,7.00
2023-03-07T02:33:18.865Z,7.00
2023-03-07T02:36:12.607Z,7.00
2023-03-07T02:38:48.002Z,7.00
2023-03-07T02:41:20.678Z,7.00
2023-03-07T02:43:56.562Z,7.00
2023-03-07T02:46:25.468Z,7.00
2023-03-07T02:49:00.865Z,7.00
2023-03-07T02:51:50.758Z,7.00
2023-03-07T02:54:21.127Z,6.90
2023-03-07T02:56:58.668Z,6.90
2023-03-07T02:59:37.609Z,6.90
2023-03-07T03:02:08.026Z,6.90
2023-03-07T03:04:53.491Z,6.90
2023-03-07T03:07:22.492Z,6.90
2023-03-07T03:09:52.153Z,6.90
2023-03-07T03:12:24.316Z,6.90
2023-03-07T03:14:59.508Z,6.90
2023-03-07T03:17:44.705Z,6.90
2023-03-07T03:20:26.048Z,6.90
2023-03-07T03:22:55.910Z,7.00
2023-03-07T03:25:46.179Z,7.00
2023-03-07T03:28:16.246Z,7.00
2023-03-07T03:30:50.201Z,6.90
2023-03-07T03:33:24.717Z,6.90
2023-03-07T03:35:54.049Z,6.90
2023-03-07T03:38:24.470Z,7.00
2023-03-07T03:40:56.045Z,6.90
2023-03-07T03:43:26.136Z,6.90
2023-03-07T03:46:11.178Z,6.90
2023-03-07T03:48:40.960Z,6.90
2023-03-07T03:51:12.086Z,6.90
2023-03-07T03:54:03.829Z,6.90
2023-03-07T03:56:45.041Z,6.80
2023-03-07T03:59:14.637Z,6.80
2023-03-07T04:01:46.566Z,6.80
2023-03-07T04:04:16.427Z,6.80
2023-03-07T04:06:47.208Z,6.80
2023-03-07T04:09:20.107Z,6.80
2023-03-07T04:11:53.966Z,6.80
2023-03-07T04:14:23.063Z,6.70
2023-03-07T04:16:52.580Z,6.70
2023-03-07T04:19:22.016Z,6.60
2023-03-07T04:21:50.522Z,6.60
2023-03-07T04:24:44.650Z,6.60
2023-03-07T04:27:15.207Z,6.50
2023-03-07T04:29:43.954Z,6.50
2023-03-07T04:32:15.245Z,6.50
2023-03-07T04:34:44.591Z,6.50
2023-03-07T04:37:15.718Z,6.50
2023-03-07T04:39:46.307Z,6.50
2023-03-07T04:42:14.677Z,6.50
2023-03-07T04:44:42.889Z,6.40
2023-03-07T04:47:16.981Z,6.40
2023-03-07T04:49:45.351Z,6.30
2023-03-07T04:52:13.729Z,6.30
2023-03-07T04:54:42.513Z,6.20
2023-03-07T04:57:13.041Z,6.10
2023-03-07T04:59:42.630Z,6.00
2023-03-07T05:02:15.017Z,6.00
2023-03-07T05:04:43.397Z,5.90
2023-03-07T05:07:11.578Z,5.90
2023-03-07T05:09:40.254Z,5.90
2023-03-07T05:12:09.165Z,5.90
2023-03-07T05:14:38.543Z,5.80
2023-03-07T05:17:06.848Z,5.80
2023-03-07T05:19:40.354Z,5.80
2023-03-07T05:22:09.138Z,5.70
2023-03-07T05:24:38.313Z,5.70
2023-03-07T05:27:07.307Z,5.70
2023-03-07T05:29:36.703Z,5.50
2023-03-07T05:32:05.436Z,5.50
2023-03-07T05:34:34.220Z,5.50
2023-03-07T05:37:04.177Z,5.40
2023-03-07T05:39:32.761Z,5.40
2023-03-07T05:42:03.330Z,5.40
2023-03-07T05:44:34.180Z,5.40
2023-03-07T05:47:04.117Z,5.20
2023-03-07T05:49:34.592Z,5.20
2023-03-07T05:52:07.702Z,5.20
2023-03-07T05:57:25.187Z,5.20
2023-03-07T06:00:16.159Z,5.10
2023-03-07T06:03:35.075Z,5.10
2023-03-07T06:06:22.879Z,5.00
2023-03-07T06:08:57.454Z,5.00
2023-03-07T06:11:50.762Z,4.90
2023-03-07T06:14:19.325Z,4.90
2023-03-07T06:16:48.133Z,4.90
2023-03-07T06:19:16.255Z,4.90
2023-03-07T06:21:44.532Z,4.80
2023-03-07T06:24:14.239Z,4.70
2023-03-07T06:26:42.427Z,4.70
2023-03-07T06:29:10.516Z,4.70
2023-03-07T06:31:38.600Z,4.70
2023-03-07T06:34:06.780Z,4.70
2023-03-07T06:36:35.076Z,4.70
2023-03-07T06:39:03.148Z,4.70
2023-03-07T06:41:32.637Z,4.70
2023-03-07T06:44:00.624Z,4.80
2023-03-07T06:46:28.746Z,4.80
2023-03-07T06:48:56.813Z,4.80
2023-03-07T06:51:25.057Z,4.80
2023-03-07T06:53:53.452Z,4.80
2023-03-07T06:56:21.418Z,4.80
2023-03-07T06:58:53.875Z,4.80
2023-03-07T07:01:23.237Z,4.80
2023-03-07T07:03:51.643Z,4.80
2023-03-07T07:06:19.752Z,4.80
2023-03-07T07:08:47.878Z,4.80
2023-03-07T07:11:16.130Z,4.70
2023-03-07T07:13:45.866Z,4.70
2023-03-07T07:16:15.667Z,4.70
2023-03-07T07:18:43.825Z,4.60
2023-03-07T07:21:12.047Z,4.60
2023-03-07T07:23:41.478Z,4.60
2023-03-07T07:26:09.806Z,4.70
2023-03-07T07:28:37.883Z,4.70
2023-03-07T07:31:07.857Z,4.70
2023-03-07T07:33:38.695Z,4.70
2023-03-07T07:36:08.392Z,4.80
2023-03-07T07:38:37.296Z,4.60
2023-03-07T07:41:05.711Z,4.60
2023-03-07T07:43:33.806Z,4.70
2023-03-07T07:46:04.410Z,4.60
2023-03-07T07:48:45.620Z,4.60
2023-03-07T07:51:19.677Z,4.60
2023-03-07T07:53:47.766Z,4.60
2023-03-07T07:56:15.788Z,4.60
2023-03-07T07:58:44.040Z,4.70
2023-03-07T08:01:16.767Z,4.70
2023-03-07T08:03:45.155Z,4.70
2023-03-07T08:06:13.768Z,4.80
2023-03-07T08:08:43.234Z,4.80
2023-03-07T08:11:11.377Z,4.80
2023-03-07T08:13:39.936Z,4.90
2023-03-07T08:16:13.264Z,4.90
2023-03-07T08:18:41.618Z,5.00
2023-03-07T08:21:10.065Z,5.10
2023-03-07T08:23:38.182Z,5.00
2023-03-07T08:26:10.234Z,5.10
2023-03-07T08:28:38.921Z,5.10
2023-03-07T08:31:11.154Z,5.20
2023-03-07T08:33:39.655Z,5.20
2023-03-07T08:36:08.857Z,5.20
2023-03-07T08:38:37.300Z,5.20
2023-03-07T08:41:11.748Z,5.20
2023-03-07T08:43:40.414Z,5.20
2023-03-07T08:46:08.665Z,5.20
2023-03-07T08:48:37.106Z,5.30
2023-03-07T08:51:07.526Z,5.10
2023-03-07T08:53:35.823Z,5.10
2023-03-07T08:56:08.900Z,5.20
2023-03-07T08:58:40.334Z,5.30
2023-03-07T09:01:09.592Z,5.40
2023-03-07T09:03:38.124Z,5.40
2023-03-07T09:06:07.172Z,5.60
2023-03-07T09:08:35.786Z,5.60
2023-03-07T09:11:05.801Z,5.60
2023-03-07T09:13:49.795Z,5.70
2023-03-07T09:16:20.471Z,5.70
2023-03-07T09:18:48.970Z,5.70
2023-03-07T09:21:17.034Z,5.70
2023-03-07T09:23:45.391Z,5.70
2023-03-07T09:26:13.475Z,5.70
2023-03-07T09:28:43.444Z,5.80
2023-03-07T09:31:13.142Z,5.80
2023-03-07T09:33:41.916Z,5.90
2023-03-07T09:36:15.403Z,5.90
2023-03-07T09:38:43.468Z,6.00
2023-03-07T09:41:36.920Z,6.00
2023-03-07T09:44:19.155Z,5.90
2023-03-07T09:46:58.056Z,5.90
2023-03-07T09:49:37.085Z,5.90
2023-03-07T09:52:10.617Z,6.00
2023-03-07T09:54:41.966Z,6.00
2023-03-07T09:57:18.523Z,6.00
2023-03-07T09:59:53.495Z,6.00
2023-03-07T10:02:30.049Z,6.00
2023-03-07T10:05:10.025Z,6.00
2023-03-07T10:07:39.984Z,6.00
2023-03-07T10:10:16.875Z,6.00
2023-03-07T10:13:16.714Z,5.90
2023-03-07T10:15:50.263Z,5.80
2023-03-07T10:18:47.967Z,5.70
2023-03-07T10:21:24.854Z,5.70
2023-03-07T10:24:13.029Z,5.70
2023-03-07T10:26:45.650Z,5.70
2023-03-07T10:29:17.680Z,5.70
2023-03-07T10:31:50.255Z,5.80
2023-03-07T10:34:27.295Z,5.90
2023-03-07T10:37:08.865Z,5.80
2023-03-07T10:39:43.550Z,5.80
2023-03-07T10:42:13.362Z,5.80
2023-03-07T10:44:45.326Z,5.90
2023-03-07T10:47:23.677Z,5.90
2023-03-07T10:49:55.726Z,6.00
2023-03-07T10:52:33.381Z,6.00
2023-03-07T10:55:39.542Z,6.00
2023-03-07T10:58:21.349Z,6.00
2023-03-07T11:01:04.707Z,6.10
2023-03-07T11:03:52.723Z,6.10
2023-03-07T11:06:28.613Z,6.00
2023-03-07T11:09:17.334Z,6.10
2023-03-07T11:11:54.474Z,6.10
2023-03-07T11:14:23.685Z,6.10
2023-03-07T11:16:54.949Z,6.10
2023-03-07T11:19:40.928Z,6.10
2023-03-07T11:22:28.688Z,6.10
2023-03-07T11:25:03.599Z,6.10
2023-03-07T11:27:38.898Z,6.10
2023-03-07T11:30:16.863Z,6.10
2023-03-07T11:33:04.945Z,6.10
2023-03-07T11:35:53.840Z,6.10
2023-03-07T11:38:29.928Z,6.10
2023-03-07T11:41:01.686Z,6.00
2023-03-07T11:43:47.764Z,6.00
2023-03-07T11:46:25.126Z,5.90
2023-03-07T11:49:05.737Z,5.80
2023-03-07T11:51:48.655Z,5.80
2023-03-07T11:54:26.852Z,5.70
2023-03-07T11:57:00.980Z,5.70
2023-03-07T11:59:49.880Z,5.70
2023-03-07T12:02:45.004Z,5.60
2023-03-07T12:05:29.563Z,5.60
2023-03-07T12:08:33.791Z,5.60
2023-03-07T12:11:14.352Z,5.50
2023-03-07T12:13:54.657Z,5.50
2023-03-07T12:16:33.078Z,5.50
2023-03-07T12:19:22.557Z,5.40
2023-03-07T12:22:18.149Z,5.20
2023-03-07T12:24:59.021Z,5.10
2023-03-07T12:27:32.121Z,5.20
2023-03-07T12:30:07.397Z,5.20
2023-03-07T12:32:37.998Z,5.20
2023-03-07T12:35:17.229Z,5.30
2023-03-07T12:37:48.868Z,5.30
2023-03-07T12:40:27.036Z,5.30
2023-03-07T12:43:01.385Z,5.40
2023-03-07T12:45:35.895Z,5.30
2023-03-07T12:48:09.907Z,5.30
2023-03-07T12:50:51.157Z,5.40
2023-03-07T12:53:31.481Z,5.40
2023-03-07T12:56:06.287Z,5.50
2023-03-07T12:58:41.095Z,5.50
2023-03-07T13:01:34.314Z,5.50
2023-03-07T13:04:08.608Z,5.50
2023-03-07T13:06:40.068Z,5.50
2023-03-07T13:09:10.460Z,5.50
2023-03-07T13:12:11.037Z,5.60
2023-03-07T13:14:40.667Z,5.60
2023-03-07T13:17:11.725Z,5.60
2023-03-07T13:19:55.114Z,5.60
2023-03-07T13:22:58.396Z,5.70
2023-03-07T13:25:52.008Z,5.70
2023-03-07T13:28:51.249Z,5.60
2023-03-07T13:31:42.830Z,5.60
2023-03-07T13:34:48.223Z,5.70
2023-03-07T13:37:51.178Z,5.60
2023-03-07T13:40:57.825Z,5.60
2023-03-07T13:43:55.527Z,5.70
2023-03-07T14:11:56.423Z,5.60
2023-03-07T14:14:45.749Z,5.60
2023-03-07T14:17:28.091Z,5.60
2023-03-07T14:20:10.673Z,5.60
2023-03-07T14:22:56.097Z,5.60
2023-03-07T14:25:28.853Z,5.60
2023-03-07T14:28:08.232Z,5.60
2023-03-07T14:30:36.358Z,5.60
2023-03-07T14:33:04.492Z,5.60
2023-03-07T14:35:39.171Z,5.70
2023-03-07T14:38:10.686Z,5.70
2023-03-07T14:40:50.249Z,5.80
2023-03-07T14:43:35.905Z,5.80
2023-03-07T14:46:18.240Z,5.80
2023-03-07T14:48:56.857Z,5.80
2023-03-07T14:51:31.464Z,5.80
2023-03-07T14:54:09.188Z,5.70
2023-03-07T14:56:38.981Z,5.70
2023-03-07T14:59:25.917Z,5.70
2023-03-07T15:01:57.738Z,5.60
2023-03-07T15:04:28.454Z,5.60
2023-03-07T15:06:58.968Z,5.60
2023-03-07T15:09:27.820Z,5.60
2023-03-07T15:12:01.208Z,5.60
2023-03-07T15:14:40.327Z,5.70
2023-03-07T15:17:14.161Z,5.70
2023-03-07T15:19:47.952Z,5.70
2023-03-07T15:22:20.795Z,5.70
2023-03-07T15:24:51.789Z,5.70
2023-03-07T15:27:24.870Z,5.70
2023-03-07T15:29:55.122Z,5.80
2023-03-07T15:32:35.354Z,5.80
2023-03-07T15:35:13.374Z,5.80
2023-03-07T15:37:56.602Z,5.80
2023-03-07T15:40:29.627Z,5.80
2023-03-07T15:42:59.101Z,5.90
2023-03-07T15:45:33.986Z,5.80
2023-03-07T15:48:04.536Z,5.80
2023-03-07T15:50:33.708Z,5.80
2023-03-07T15:53:07.555Z,5.80
2023-03-07T15:55:39.634Z,5.70
2023-03-07T15:58:15.297Z,5.70
2023-03-07T16:00:45.864Z,5.70
2023-03-07T16:03:26.099Z,5.70
2023-03-07T16:05:55.319Z,5.70
2023-03-07T16:08:23.819Z,5.70
2023-03-07T16:10:57.337Z,5.60
2023-03-07T16:13:29.263Z,5.60
2023-03-07T16:16:04.253Z,5.60
2023-03-07T16:18:33.278Z,5.60
2023-03-07T16:21:01.325Z,5.50
2023-03-07T16:23:31.573Z,5.50
2023-03-07T16:26:03.893Z,5.40
2023-03-07T16:28:31.978Z,5.40
2023-03-07T16:31:01.392Z,5.40
2023-03-07T16:33:29.420Z,5.30
2023-03-07T16:35:57.627Z,5.20
2023-03-07T16:38:25.752Z,5.20
2023-03-07T16:40:54.473Z,5.20
2023-03-07T16:43:34.114Z,5.10
2023-03-07T16:46:06.220Z,5.10
2023-03-07T16:48:34.929Z,5.10
2023-03-07T16:51:03.970Z,5.00
2023-03-07T16:53:32.083Z,5.10
2023-03-07T16:56:01.348Z,5.10
2023-03-07T16:58:34.978Z,5.10
2023-03-07T17:01:05.885Z,5.10
2023-03-07T17:03:33.996Z,5.00
2023-03-07T17:06:03.097Z,5.00
2023-03-07T17:08:31.173Z,4.90
2023-03-07T17:10:59.856Z,4.90
2023-03-07T17:13:29.653Z,4.90
2023-03-07T17:15:58.400Z,4.90
2023-03-07T17:18:29.833Z,4.90
2023-03-07T17:20:57.966Z,4.90
2023-03-07T17:23:26.068Z,4.90
2023-03-07T17:25:54.526Z,4.80
2023-03-07T17:28:22.815Z,4.80
2023-03-07T17:30:50.917Z,4.70
2023-03-07T17:33:19.651Z,4.70
2023-03-07T17:35:49.161Z,4.70
2023-03-07T17:38:17.367Z,4.60
2023-03-07T17:40:45.419Z,4.60
2023-03-07T17:43:14.093Z,4.60
2023-03-07T17:45:42.400Z,4.60
2023-03-07T17:48:10.448Z,4.60
2023-03-07T17:50:38.644Z,4.70
2023-03-07T17:53:08.823Z,4.60
2023-03-07T17:55:37.831Z,4.60
2023-03-07T17:58:09.779Z,4.50
2023-03-07T18:04:42.739Z,4.40
2023-03-07T18:07:10.862Z,4.40
2023-03-07T18:09:40.442Z,4.40
2023-03-07T18:12:09.581Z,4.40
2023-03-07T18:14:37.790Z,4.30
2023-03-07T18:17:05.815Z,4.20
2023-03-07T18:19:34.518Z,4.30
2023-03-07T18:22:02.434Z,4.20
2023-03-07T18:24:30.996Z,4.20
2023-03-07T18:27:00.725Z,4.20
2023-03-07T18:29:30.327Z,4.20
2023-03-07T18:31:58.468Z,4.20
2023-03-07T18:34:26.489Z,4.20
2023-03-07T18:36:54.736Z,4.20
2023-03-07T18:39:23.753Z,4.20
2023-03-07T18:41:52.337Z,4.20
2023-03-07T18:44:21.777Z,4.20
2023-03-07T18:46:50.055Z,4.10
2023-03-07T18:49:18.137Z,4.20
2023-03-07T18:51:48.296Z,4.10
2023-03-07T18:54:16.650Z,4.20
2023-03-07T18:56:46.700Z,4.20
2023-03-07T18:59:15.084Z,4.20
2023-03-07T19:01:45.370Z,4.20
2023-03-07T19:04:13.380Z,4.20
2023-03-07T19:06:47.692Z,4.20
2023-03-07T19:09:26.516Z,4.20
2023-03-07T19:12:52.139Z,4.10
2023-03-07T19:15:45.028Z,4.10
2023-03-07T19:18:24.004Z,4.10
2023-03-07T19:20:57.029Z,4.10
2023-03-07T19:23:25.505Z,4.10
2023-03-07T19:26:03.576Z,4.10
2023-03-07T19:28:33.093Z,4.00
2023-03-07T19:31:31.844Z,4.00
2023-03-07T19:34:05.053Z,3.90
2023-03-07T19:37:16.876Z,3.90
2023-03-07T19:39:52.620Z,3.90
2023-03-07T19:42:28.975Z,4.00
2023-03-07T19:44:59.982Z,4.00
2023-03-07T19:47:28.780Z,4.00
2023-03-07T19:49:59.055Z,4.00
2023-03-07T19:52:32.528Z,4.00
2023-03-07T19:55:06.489Z,3.90
2023-03-07T19:57:38.627Z,3.90
2023-03-07T20:00:08.740Z,3.90
2023-03-07T20:02:38.449Z,3.90
2023-03-07T20:05:29.012Z,3.90
2023-03-07T20:07:58.481Z,3.90
2023-03-07T20:10:36.633Z,3.80
2023-03-07T20:13:06.069Z,3.80
2023-03-07T20:15:41.861Z,3.80
2023-03-07T20:18:12.705Z,3.80
2023-03-07T20:20:43.325Z,3.80
2023-03-07T20:23:13.830Z,3.80
2023-03-07T20:25:42.097Z,3.80
2023-03-07T20:28:12.758Z,3.80
2023-03-07T20:30:43.133Z,3.80
2023-03-07T20:33:12.690Z,3.70
2023-03-07T20:35:43.274Z,3.80
2023-03-07T20:38:13.413Z,3.70
2023-03-07T20:40:44.501Z,3.70
2023-03-07T20:43:45.423Z,3.70
2023-03-07T20:46:20.352Z,3.70
2023-03-07T20:48:52.519Z,3.70
2023-03-07T20:51:37.999Z,3.70
2023-03-07T20:54:11.795Z,3.70
2023-03-07T20:56:42.946Z,3.70
2023-03-07T20:59:18.881Z,3.70
2023-03-07T21:02:08.874Z,3.70
2023-03-07T21:04:41.802Z,3.70
2023-03-07T21:07:15.771Z,3.70
2023-03-07T21:09:50.850Z,3.60
2023-03-07T21:12:40.664Z,3.60
2023-03-07T21:15:14.398Z,3.60
2023-03-07T21:17:42.961Z,3.60
2023-03-07T21:20:12.931Z,3.60
2023-03-07T21:22:42.473Z,3.50
2023-03-07T21:25:11.351Z,3.50
2023-03-07T21:27:48.891Z,3.50
2023-03-07T21:30:21.452Z,3.40
2023-03-07T21:32:50.481Z,3.50
2023-03-07T21:35:33.255Z,3.40
2023-03-07T21:38:10.421Z,3.40
2023-03-07T21:41:01.310Z,3.40
2023-03-07T21:44:11.956Z,3.30
2023-03-07T21:47:09.280Z,3.30
2023-03-07T21:49:41.058Z,3.40
2023-03-07T21:52:09.422Z,3.30
2023-03-07T21:54:41.792Z,3.20
2023-03-07T21:57:10.985Z,3.20
2023-03-07T21:59:40.300Z,3.20
2023-03-07T22:02:10.476Z,3.20
2023-03-07T22:04:40.219Z,3.20
2023-03-07T22:07:13.971Z,3.10
2023-03-07T22:10:06.277Z,3.20
2023-03-07T22:12:37.883Z,3.20
2023-03-07T22:15:08.028Z,3.10
2023-03-07T22:17:38.260Z,3.10
2023-03-07T22:20:11.264Z,3.10
2023-03-07T22:22:41.493Z,3.10
2023-03-07T22:25:15.954Z,3.10
2023-03-07T22:27:49.141Z,3.00
2023-03-07T22:30:20.268Z,3.10
2023-03-07T22:32:53.772Z,3.00
2023-03-07T22:35:25.144Z,3.00
2023-03-07T22:37:58.327Z,3.00
2023-03-07T22:40:29.320Z,3.00
2023-03-07T22:43:03.237Z,3.00
2023-03-07T22:45:31.803Z,3.00
2023-03-07T22:48:02.647Z,3.10
2023-03-07T22:50:32.660Z,3.10
2023-03-07T22:53:07.327Z,3.10
2023-03-07T22:55:44.479Z,3.10
2023-03-07T22:58:18.201Z,3.10
2023-03-07T23:00:46.524Z,3.10
2023-03-07T23:03:25.758Z,3.10
2023-03-07T23:05:56.152Z,3.10
2023-03-07T23:08:25.751Z,3.20
2023-03-07T23:11:13.883Z,3.10
2023-03-07T23:13:45.772Z,3.10
2023-03-07T23:16:25.279Z,3.10
2023-03-07T23:18:59.143Z,3.10
2023-03-07T23:24:38.155Z,3.00
2023-03-07T23:27:10.107Z,3.00
2023-03-07T23:29:59.233Z,3.00
2023-03-07T23:32:31.929Z,3.00
2023-03-07T23:35:03.245Z,3.00
2023-03-07T23:37:32.037Z,2.90
2023-03-07T23:40:14.822Z,2.80
2023-03-07T23:43:05.621Z,2.90
2023-03-07T23:45:42.029Z,2.90
2023-03-07T23:48:36.367Z,2.90
2023-03-07T23:51:21.752Z,2.80
2023-03-07T23:54:18.052Z,2.80
2023-03-07T23:56:55.652Z,2.80
2023-03-07T23:59:28.594Z,2.70
